createdAt,value
2016-12-06T00:00:45.366Z,1022.17
2016-12-06T00:01:45.344Z,1022.18
2016-12-06T00:02:45.328Z,1022.22
2016-12-06T00:03:45.311Z,1022.14
2016-12-06T00:04:45.294Z,1022.13
2016-12-06T00:05:45.280Z,1022.17
2016-12-06T00:06:45.261Z,1022.15
2016-12-06T00:07:45.248Z,1022.18
2016-12-06T00:08:45.227Z,1022.18
2016-12-06T00:09:45.211Z,1022.17
2016-12-06T00:10:45.192Z,1022.16
2016-12-06T00:11:45.177Z,1022.16
2016-12-06T00:12:45.158Z,1022.17
2016-12-06T00:13:45.144Z,1022.16
2016-12-06T00:14:45.127Z,1022.18
2016-12-06T00:15:45.112Z,1022.22
2016-12-06T00:16:45.099Z,1022.24
2016-12-06T00:17:45.077Z,1022.22
2016-12-06T00:18:45.064Z,1022.25
2016-12-06T00:19:45.045Z,1022.26
2016-12-06T00:20:45.043Z,1022.19
2016-12-06T00:21:45.010Z,1022.2
2016-12-06T00:22:44.995Z,1022.19
2016-12-06T00:23:44.980Z,1022.2
2016-12-06T00:24:44.961Z,1022.17
2016-12-06T00:25:44.943Z,1022.17
2016-12-06T00:26:44.928Z,1022.16
2016-12-06T00:27:44.914Z,1022.16
2016-12-06T00:28:44.894Z,1022.16
2016-12-06T00:29:44.876Z,1022.16
2016-12-06T00:30:44.861Z,1022.18
2016-12-06T00:31:44.844Z,1022.17
2016-12-06T00:32:44.827Z,1022.17
2016-12-06T00:33:44.812Z,1022.14
2016-12-06T00:34:44.794Z,1022.14
2016-12-06T00:35:44.773Z,1022.16
2016-12-06T00:36:44.765Z,1022.16
2016-12-06T00:37:44.745Z,1022.12
2016-12-06T00:38:44.728Z,1022.12
2016-12-06T00:39:44.708Z,1022.12
2016-12-06T00:40:44.693Z,1022.09
2016-12-06T00:41:44.676Z,1022.1
2016-12-06T00:42:44.661Z,1022.1
2016-12-06T00:43:44.695Z,1022.13
2016-12-06T00:44:44.628Z,1022.1
2016-12-06T00:45:44.609Z,1022.14
2016-12-06T00:46:44.592Z,1022.15
2016-12-06T00:47:44.575Z,1022.11
2016-12-06T00:48:44.560Z,1022.16
2016-12-06T00:49:44.542Z,1022.13
2016-12-06T00:50:44.529Z,1022.15
2016-12-06T00:51:44.508Z,1022.19
2016-12-06T00:52:44.491Z,1022.19
2016-12-06T00:53:44.476Z,1022.16
2016-12-06T00:54:44.462Z,1022.16
2016-12-06T00:55:44.442Z,1022.14
2016-12-06T00:56:44.424Z,1022.14
2016-12-06T00:57:44.405Z,1022.16
2016-12-06T00:58:44.391Z,1022.21
2016-12-06T00:59:44.378Z,1022.17
2016-12-06T01:00:44.356Z,1022.14
2016-12-06T01:01:44.339Z,1022.21
2016-12-06T01:02:44.323Z,1022.18
2016-12-06T01:03:44.307Z,1022.22
2016-12-06T01:04:44.288Z,1022.25
2016-12-06T01:05:44.271Z,1022.19
2016-12-06T01:06:44.255Z,1022.22
2016-12-06T01:07:44.238Z,1022.23
2016-12-06T01:08:44.221Z,1022.21
2016-12-06T01:09:44.206Z,1022.24
2016-12-06T01:10:44.189Z,1022.2
2016-12-06T01:11:44.173Z,1022.23
2016-12-06T01:12:44.204Z,1022.21
2016-12-06T01:13:44.141Z,1022.25
2016-12-06T01:14:44.120Z,1022.28
2016-12-06T01:15:44.107Z,1022.27
2016-12-06T01:16:44.088Z,1022.25
2016-12-06T01:17:44.070Z,1022.29
2016-12-06T01:18:44.053Z,1022.24
2016-12-06T01:19:44.036Z,1022.22
2016-12-06T01:20:44.018Z,1022.21
2016-12-06T01:21:44.001Z,1022.27
2016-12-06T01:22:43.986Z,1022.25
2016-12-06T01:23:43.966Z,1022.26
2016-12-06T01:24:43.952Z,1022.28
2016-12-06T01:25:43.937Z,1022.33
2016-12-06T01:26:43.917Z,1022.3
2016-12-06T01:27:43.903Z,1022.33
2016-12-06T01:28:44.085Z,1022.34
2016-12-06T01:29:43.872Z,1022.39
2016-12-06T01:30:43.848Z,1022.33
2016-12-06T01:31:43.833Z,1022.38
2016-12-06T01:32:43.816Z,1022.38
2016-12-06T01:33:43.803Z,1022.36
2016-12-06T01:34:43.783Z,1022.4
2016-12-06T01:35:43.764Z,1022.36
2016-12-06T01:36:43.747Z,1022.4
2016-12-06T01:37:43.732Z,1022.43
2016-12-06T01:38:43.712Z,1022.44
2016-12-06T01:39:43.699Z,1022.46
2016-12-06T01:40:43.680Z,1022.43
2016-12-06T01:41:43.663Z,1022.5
2016-12-06T01:42:43.645Z,1022.51
2016-12-06T01:43:43.632Z,1022.52
2016-12-06T01:44:43.611Z,1022.51
2016-12-06T01:45:43.594Z,1022.53
2016-12-06T01:46:43.576Z,1022.51
2016-12-06T01:47:43.562Z,1022.55
2016-12-06T01:48:43.542Z,1022.58
2016-12-06T01:49:43.527Z,1022.57
2016-12-06T01:50:43.509Z,1022.55
2016-12-06T01:51:43.494Z,1022.57
2016-12-06T01:52:43.475Z,1022.6
2016-12-06T01:53:43.460Z,1022.61
2016-12-06T01:54:43.443Z,1022.6
2016-12-06T01:55:43.425Z,1022.63
2016-12-06T01:56:43.408Z,1022.61
2016-12-06T01:57:43.393Z,1022.63
2016-12-06T01:58:43.374Z,1022.67
2016-12-06T01:59:43.356Z,1022.65
2016-12-06T02:00:43.338Z,1022.68
2016-12-06T02:01:43.322Z,1022.71
2016-12-06T02:02:43.307Z,1022.69
2016-12-06T02:03:43.288Z,1022.73
2016-12-06T02:04:43.275Z,1022.75
2016-12-06T02:05:43.256Z,1022.71
2016-12-06T02:06:43.239Z,1022.69
2016-12-06T02:07:43.221Z,1022.7
2016-12-06T02:08:43.204Z,1022.68
2016-12-06T02:09:43.190Z,1022.74
2016-12-06T02:10:43.170Z,1022.68
2016-12-06T02:11:43.154Z,1022.61
2016-12-06T02:12:43.138Z,1022.6
2016-12-06T02:13:43.118Z,1022.66
2016-12-06T02:14:43.101Z,1022.57
2016-12-06T02:15:43.084Z,1022.62
2016-12-06T02:16:43.065Z,1022.6
2016-12-06T02:17:43.051Z,1022.56
2016-12-06T02:18:43.032Z,1022.55
2016-12-06T02:19:43.015Z,1022.56
2016-12-06T02:20:43.000Z,1022.6
2016-12-06T02:21:42.981Z,1022.62
2016-12-06T02:22:42.963Z,1022.59
2016-12-06T02:23:42.948Z,1022.63
2016-12-06T02:24:42.932Z,1022.65
2016-12-06T02:25:42.916Z,1022.61
2016-12-06T02:26:42.896Z,1022.59
2016-12-06T02:27:42.878Z,1022.65
2016-12-06T02:28:42.860Z,1022.65
2016-12-06T02:29:42.844Z,1022.61
2016-12-06T02:30:42.828Z,1022.62
2016-12-06T02:31:42.811Z,1022.68
2016-12-06T02:32:42.792Z,1022.66
2016-12-06T02:33:42.777Z,1022.68
2016-12-06T02:34:42.762Z,1022.68
2016-12-06T02:35:42.742Z,1022.7
2016-12-06T02:36:42.725Z,1022.68
2016-12-06T02:37:42.707Z,1022.69
2016-12-06T02:38:42.690Z,1022.76
2016-12-06T02:39:42.677Z,1022.71
2016-12-06T02:40:42.656Z,1022.77
2016-12-06T02:41:42.638Z,1022.74
2016-12-06T02:42:42.621Z,1022.75
2016-12-06T02:43:42.602Z,1022.72
2016-12-06T02:44:42.587Z,1022.75
2016-12-06T02:45:42.570Z,1022.74
2016-12-06T02:46:42.552Z,1022.74
2016-12-06T02:47:42.531Z,1022.78
2016-12-06T02:48:42.516Z,1022.78
2016-12-06T02:49:42.501Z,1022.8
2016-12-06T02:50:42.484Z,1022.81
2016-12-06T02:51:42.469Z,1022.8
2016-12-06T02:52:42.447Z,1022.77
2016-12-06T02:53:42.433Z,1022.81
2016-12-06T02:54:42.413Z,1022.82
2016-12-06T02:55:42.396Z,1022.8
2016-12-06T02:56:42.377Z,1022.77
2016-12-06T02:57:42.368Z,1022.78
2016-12-06T02:58:42.349Z,1022.76
2016-12-06T02:59:42.327Z,1022.76
2016-12-06T03:00:42.310Z,1022.7
2016-12-06T03:01:42.292Z,1022.69
2016-12-06T03:02:42.325Z,1022.73
2016-12-06T03:03:42.260Z,1022.7
2016-12-06T03:04:42.241Z,1022.67
2016-12-06T03:05:42.224Z,1022.67
2016-12-06T03:06:42.207Z,1022.68
2016-12-06T03:07:42.189Z,1022.69
2016-12-06T03:08:42.172Z,1022.73
2016-12-06T03:09:42.155Z,1022.73
2016-12-06T03:10:42.138Z,1022.71
2016-12-06T03:11:42.121Z,1022.76
2016-12-06T03:12:42.104Z,1022.73
2016-12-06T03:13:42.086Z,1022.74
2016-12-06T03:14:42.069Z,1022.75
2016-12-06T03:15:42.054Z,1022.76
2016-12-06T03:16:42.051Z,1022.78
2016-12-06T03:17:42.015Z,1022.77
2016-12-06T03:18:41.998Z,1022.77
2016-12-06T03:19:41.981Z,1022.8
2016-12-06T03:20:41.964Z,1022.82
2016-12-06T03:21:41.946Z,1022.8
2016-12-06T03:22:41.931Z,1022.83
2016-12-06T03:23:41.913Z,1022.86
2016-12-06T03:24:41.896Z,1022.83
2016-12-06T03:25:41.878Z,1022.9
2016-12-06T03:26:41.860Z,1022.88
2016-12-06T03:27:41.844Z,1022.85
2016-12-06T03:28:41.826Z,1022.85
2016-12-06T03:29:41.810Z,1022.84
2016-12-06T03:30:41.792Z,1022.84
2016-12-06T03:31:41.774Z,1022.87
2016-12-06T03:32:41.757Z,1022.89
2016-12-06T03:33:41.740Z,1022.84
2016-12-06T03:34:41.721Z,1022.8
2016-12-06T03:35:41.704Z,1022.86
2016-12-06T03:36:41.692Z,1022.83
2016-12-06T03:37:41.671Z,1022.85
2016-12-06T03:38:41.652Z,1022.89
2016-12-06T03:39:41.639Z,1022.92
2016-12-06T03:40:41.617Z,1022.87
2016-12-06T03:41:41.600Z,1022.88
2016-12-06T03:42:41.583Z,1022.93
2016-12-06T03:43:41.572Z,1022.94
2016-12-06T03:44:41.549Z,1022.94
2016-12-06T03:45:41.530Z,1022.95
2016-12-06T03:46:41.514Z,1023.01
2016-12-06T03:47:41.497Z,1022.99
2016-12-06T03:48:41.482Z,1022.99
2016-12-06T03:49:41.461Z,1023.01
2016-12-06T03:50:41.443Z,1022.99
2016-12-06T03:51:41.426Z,1023.01
2016-12-06T03:52:41.409Z,1023.01
2016-12-06T03:53:41.394Z,1023.03
2016-12-06T03:54:41.374Z,1022.98
2016-12-06T03:55:41.357Z,1022.99
2016-12-06T03:56:41.342Z,1023.01
2016-12-06T03:57:41.321Z,1022.99
2016-12-06T03:58:41.304Z,1023.02
2016-12-06T03:59:41.288Z,1023.05
2016-12-06T04:00:41.271Z,1023.05
2016-12-06T04:01:41.252Z,1023.07
2016-12-06T04:02:41.234Z,1023.1
2016-12-06T04:03:41.447Z,1023.03
2016-12-06T04:04:41.197Z,1023.06
2016-12-06T04:05:41.181Z,1023.06
2016-12-06T04:06:41.166Z,1023.08
2016-12-06T04:07:41.146Z,1023.03
2016-12-06T04:08:41.129Z,1023.03
2016-12-06T04:09:41.162Z,1023.06
2016-12-06T04:10:41.097Z,1023.03
2016-12-06T04:11:41.083Z,1023.02
2016-12-06T04:12:41.064Z,1022.99
2016-12-06T04:13:41.043Z,1022.99
2016-12-06T04:14:41.028Z,1022.97
2016-12-06T04:15:41.007Z,1022.97
2016-12-06T04:16:40.989Z,1023
2016-12-06T04:17:40.973Z,1023.01
2016-12-06T04:18:40.955Z,1023.07
2016-12-06T04:19:40.942Z,1023.1
2016-12-06T04:20:40.921Z,1023.09
2016-12-06T04:21:40.903Z,1023.1
2016-12-06T04:22:40.884Z,1023.06
2016-12-06T04:23:40.867Z,1023.08
2016-12-06T04:24:40.854Z,1023.06
2016-12-06T04:25:40.833Z,1023.06
2016-12-06T04:26:41.043Z,1023.04
2016-12-06T04:27:40.800Z,1023.07
2016-12-06T04:28:40.781Z,1023.05
2016-12-06T04:29:40.764Z,1023.08
2016-12-06T04:30:40.744Z,1023.1
2016-12-06T04:31:40.727Z,1023.11
2016-12-06T04:32:40.709Z,1023.14
2016-12-06T04:33:40.693Z,1023.15
2016-12-06T04:34:40.676Z,1023.15
2016-12-06T04:35:40.659Z,1023.17
2016-12-06T04:37:40.622Z,1023.25
2016-12-06T04:38:40.607Z,1023.31
2016-12-06T04:39:40.591Z,1023.34
2016-12-06T04:40:40.570Z,1023.42
2016-12-06T04:41:40.554Z,1023.38
2016-12-06T04:42:40.536Z,1023.36
2016-12-06T04:43:40.520Z,1023.4
2016-12-06T04:44:40.499Z,1023.39
2016-12-06T04:45:40.483Z,1023.43
2016-12-06T04:46:40.464Z,1023.42
2016-12-06T04:47:40.448Z,1023.38
2016-12-06T04:48:40.431Z,1023.43
2016-12-06T04:49:40.413Z,1023.44
2016-12-06T04:50:40.396Z,1023.41
2016-12-06T04:51:40.379Z,1023.38
2016-12-06T04:52:40.360Z,1023.41
2016-12-06T04:53:40.343Z,1023.45
2016-12-06T04:54:40.325Z,1023.46
2016-12-06T04:55:40.312Z,1023.47
2016-12-06T04:56:40.291Z,1023.47
2016-12-06T04:57:40.274Z,1023.48
2016-12-06T04:58:40.261Z,1023.48
2016-12-06T04:59:40.239Z,1023.48
2016-12-06T05:00:40.224Z,1023.46
2016-12-06T05:01:40.205Z,1023.43
2016-12-06T05:02:40.187Z,1023.43
2016-12-06T05:03:40.170Z,1023.4
2016-12-06T05:04:40.153Z,1023.38
2016-12-06T05:05:40.136Z,1023.41
2016-12-06T05:06:40.117Z,1023.39
2016-12-06T05:07:40.099Z,1023.39
2016-12-06T05:08:40.082Z,1023.41
2016-12-06T05:09:40.065Z,1023.38
2016-12-06T05:10:40.048Z,1023.39
2016-12-06T05:11:40.030Z,1023.38
2016-12-06T05:12:40.017Z,1023.37
2016-12-06T05:13:39.994Z,1023.4
2016-12-06T05:14:39.983Z,1023.42
2016-12-06T05:15:39.962Z,1023.38
2016-12-06T05:16:39.943Z,1023.39
2016-12-06T05:17:39.925Z,1023.38
2016-12-06T05:18:39.908Z,1023.35
2016-12-06T05:19:39.897Z,1023.36
2016-12-06T05:20:39.874Z,1023.4
2016-12-06T05:21:39.857Z,1023.38
2016-12-06T05:22:39.839Z,1023.44
2016-12-06T05:23:39.831Z,1023.51
2016-12-06T05:24:39.805Z,1023.5
2016-12-06T05:25:39.796Z,1023.56
2016-12-06T05:26:39.770Z,1023.54
2016-12-06T05:27:39.752Z,1023.56
2016-12-06T05:28:39.736Z,1023.56
2016-12-06T05:29:39.719Z,1023.61
2016-12-06T05:30:39.704Z,1023.58
2016-12-06T05:31:39.686Z,1023.57
2016-12-06T05:32:39.669Z,1023.58
2016-12-06T05:33:39.653Z,1023.57
2016-12-06T05:34:39.893Z,1023.56
2016-12-06T05:35:39.627Z,1023.57
2016-12-06T05:36:39.598Z,1023.55
2016-12-06T05:37:39.581Z,1023.56
2016-12-06T05:38:39.564Z,1023.55
2016-12-06T05:39:39.547Z,1023.57
2016-12-06T05:40:39.530Z,1023.6
2016-12-06T05:41:39.512Z,1023.55
2016-12-06T05:42:39.497Z,1023.54
2016-12-06T05:43:39.478Z,1023.57
2016-12-06T05:44:39.460Z,1023.59
2016-12-06T05:45:39.445Z,1023.58
2016-12-06T05:46:39.427Z,1023.63
2016-12-06T05:47:39.414Z,1023.63
2016-12-06T05:48:39.394Z,1023.69
2016-12-06T05:49:39.377Z,1023.74
2016-12-06T05:50:39.358Z,1023.73
2016-12-06T05:51:39.342Z,1023.75
2016-12-06T05:52:39.329Z,1023.74
2016-12-06T05:53:39.310Z,1023.73
2016-12-06T05:54:39.293Z,1023.79
2016-12-06T05:55:39.276Z,1023.79
2016-12-06T05:56:39.258Z,1023.81
2016-12-06T05:57:39.244Z,1023.83
2016-12-06T05:58:39.224Z,1023.83
2016-12-06T05:59:39.209Z,1023.77
2016-12-06T06:00:39.191Z,1023.75
2016-12-06T06:01:39.178Z,1023.76
2016-12-06T06:02:39.157Z,1023.81
2016-12-06T06:03:39.140Z,1023.77
2016-12-06T06:04:39.122Z,1023.79
2016-12-06T06:05:39.105Z,1023.74
2016-12-06T06:06:39.090Z,1023.74
2016-12-06T06:07:39.073Z,1023.73
2016-12-06T06:08:39.056Z,1023.77
2016-12-06T06:09:39.038Z,1023.7
2016-12-06T06:10:39.024Z,1023.74
2016-12-06T06:11:39.006Z,1023.7
2016-12-06T06:12:38.988Z,1023.76
2016-12-06T06:13:38.971Z,1023.72
2016-12-06T06:14:38.955Z,1023.77
2016-12-06T06:15:38.939Z,1023.78
2016-12-06T06:16:38.919Z,1023.81
2016-12-06T06:17:38.904Z,1023.87
2016-12-06T06:18:38.887Z,1023.9
2016-12-06T06:19:38.870Z,1023.89
2016-12-06T06:20:38.852Z,1023.91
2016-12-06T06:21:38.835Z,1023.89
2016-12-06T06:22:38.822Z,1023.92
2016-12-06T06:23:38.801Z,1024
2016-12-06T06:24:38.786Z,1023.93
2016-12-06T06:25:38.768Z,1023.97
2016-12-06T06:26:38.751Z,1023.95
2016-12-06T06:27:38.734Z,1023.91
2016-12-06T06:28:38.717Z,1023.91
2016-12-06T06:29:38.700Z,1023.91
2016-12-06T06:30:38.684Z,1023.94
2016-12-06T06:31:38.671Z,1023.88
2016-12-06T06:32:38.650Z,1023.86
2016-12-06T06:33:38.636Z,1023.87
2016-12-06T06:34:38.617Z,1023.87
2016-12-06T06:35:38.600Z,1023.89
2016-12-06T06:36:38.582Z,1023.91
2016-12-06T06:37:38.566Z,1023.9
2016-12-06T06:38:38.550Z,1023.89
2016-12-06T06:39:38.533Z,1023.87
2016-12-06T06:40:38.516Z,1023.93
2016-12-06T06:41:38.499Z,1023.92
2016-12-06T06:42:38.483Z,1023.91
2016-12-06T06:43:38.464Z,1023.92
2016-12-06T06:44:38.449Z,1023.92
2016-12-06T06:45:38.431Z,1023.94
2016-12-06T06:46:38.416Z,1023.97
2016-12-06T06:47:38.399Z,1023.88
2016-12-06T06:48:38.382Z,1023.96
2016-12-06T06:49:38.365Z,1023.93
2016-12-06T06:50:38.350Z,1023.92
2016-12-06T06:51:38.332Z,1023.92
2016-12-06T06:52:38.315Z,1023.93
2016-12-06T06:53:38.298Z,1023.98
2016-12-06T06:54:38.283Z,1023.94
2016-12-06T06:55:38.268Z,1023.94
2016-12-06T06:56:38.252Z,1023.97
2016-12-06T06:57:38.233Z,1023.96
2016-12-06T06:58:38.225Z,1024
2016-12-06T06:59:38.201Z,1024.04
2016-12-06T07:00:38.181Z,1024.1
2016-12-06T07:01:38.166Z,1024.13
2016-12-06T07:02:38.149Z,1024.15
2016-12-06T07:03:38.133Z,1024.2
2016-12-06T07:04:38.116Z,1024.15
2016-12-06T07:05:38.103Z,1024.14
2016-12-06T07:06:38.082Z,1024.12
2016-12-06T07:07:38.070Z,1024.11
2016-12-06T07:08:38.050Z,1024.12
2016-12-06T07:09:38.034Z,1024.13
2016-12-06T07:10:38.017Z,1024.07
2016-12-06T07:11:38.000Z,1024.12
2016-12-06T07:12:37.983Z,1024.11
2016-12-06T07:13:37.967Z,1024.16
2016-12-06T07:14:37.954Z,1024.18
2016-12-06T07:15:37.933Z,1024.21
2016-12-06T07:16:37.917Z,1024.23
2016-12-06T07:17:37.900Z,1024.26
2016-12-06T07:18:37.887Z,1024.21
2016-12-06T07:19:37.868Z,1024.21
2016-12-06T07:20:37.853Z,1024.22
2016-12-06T07:21:37.832Z,1024.18
2016-12-06T07:22:37.818Z,1024.19
2016-12-06T07:23:37.803Z,1024.19
2016-12-06T07:24:37.788Z,1024.16
2016-12-06T07:25:37.769Z,1024.2
2016-12-06T07:26:37.753Z,1024.2
2016-12-06T07:27:37.737Z,1024.19
2016-12-06T07:28:37.719Z,1024.2
2016-12-06T07:29:37.704Z,1024.21
2016-12-06T07:30:37.739Z,1024.23
2016-12-06T07:31:37.671Z,1024.21
2016-12-06T07:32:37.653Z,1024.28
2016-12-06T07:33:37.637Z,1024.38
2016-12-06T07:34:37.624Z,1024.33
2016-12-06T07:35:37.606Z,1024.37
2016-12-06T07:36:37.593Z,1024.39
2016-12-06T07:37:37.573Z,1024.39
2016-12-06T07:38:37.558Z,1024.34
2016-12-06T07:39:37.537Z,1024.3
2016-12-06T07:40:37.522Z,1024.27
2016-12-06T07:41:37.504Z,1024.29
2016-12-06T07:42:37.489Z,1024.31
2016-12-06T07:43:37.473Z,1024.24
2016-12-06T07:44:37.457Z,1024.32
2016-12-06T07:45:37.447Z,1024.34
2016-12-06T07:46:37.427Z,1024.35
2016-12-06T07:47:37.409Z,1024.42
2016-12-06T07:48:37.593Z,1024.4
2016-12-06T07:49:37.375Z,1024.42
2016-12-06T07:50:37.358Z,1024.44
2016-12-06T07:51:37.341Z,1024.49
2016-12-06T07:52:37.326Z,1024.5
2016-12-06T07:53:37.310Z,1024.51
2016-12-06T07:54:37.296Z,1024.53
2016-12-06T07:55:37.276Z,1024.49
2016-12-06T07:56:37.480Z,1024.52
2016-12-06T07:57:37.243Z,1024.51
2016-12-06T07:58:37.226Z,1024.59
2016-12-06T07:59:37.211Z,1024.6
2016-12-06T08:00:37.195Z,1024.65
2016-12-06T08:01:37.179Z,1024.64
2016-12-06T08:02:37.161Z,1024.69
2016-12-06T08:03:37.148Z,1024.7
2016-12-06T08:04:37.129Z,1024.7
2016-12-06T08:05:37.353Z,1024.69
2016-12-06T08:06:37.326Z,1024.73
2016-12-06T08:07:37.081Z,1024.77
2016-12-06T08:08:37.064Z,1024.72
2016-12-06T08:09:37.047Z,1024.73
2016-12-06T08:10:37.032Z,1024.7
2016-12-06T08:11:37.020Z,1024.69
2016-12-06T08:12:36.999Z,1024.7
2016-12-06T08:13:36.984Z,1024.72
2016-12-06T08:14:36.969Z,1024.71
2016-12-06T08:15:36.952Z,1024.77
2016-12-06T08:16:36.935Z,1024.77
2016-12-06T08:17:36.919Z,1024.76
2016-12-06T08:18:36.910Z,1024.7
2016-12-06T08:19:36.887Z,1024.75
2016-12-06T08:20:36.877Z,1024.74
2016-12-06T08:21:36.854Z,1024.72
2016-12-06T08:22:36.837Z,1024.73
2016-12-06T08:23:36.820Z,1024.75
2016-12-06T08:24:36.804Z,1024.8
2016-12-06T08:25:36.786Z,1024.73
2016-12-06T08:26:36.772Z,1024.75
2016-12-06T08:27:36.755Z,1024.82
2016-12-06T08:28:36.740Z,1024.8
2016-12-06T08:29:36.723Z,1024.82
2016-12-06T08:30:36.705Z,1024.88
2016-12-06T08:31:36.696Z,1024.86
2016-12-06T08:32:36.675Z,1024.91
2016-12-06T08:33:36.658Z,1024.86
2016-12-06T08:34:36.643Z,1024.87
2016-12-06T08:35:36.674Z,1024.87
2016-12-06T08:36:36.610Z,1024.9
2016-12-06T08:37:36.593Z,1024.95
2016-12-06T08:38:36.576Z,1024.91
2016-12-06T08:39:36.561Z,1024.92
2016-12-06T08:40:36.545Z,1025
2016-12-06T08:41:36.528Z,1024.96
2016-12-06T08:42:36.512Z,1024.99
2016-12-06T08:43:36.496Z,1025
2016-12-06T08:44:36.480Z,1025.01
2016-12-06T08:45:36.463Z,1025.04
2016-12-06T08:46:36.452Z,1025.03
2016-12-06T08:47:36.433Z,1025.06
2016-12-06T08:48:36.416Z,1025.06
2016-12-06T08:49:36.398Z,1025.03
2016-12-06T08:50:36.633Z,1025.02
2016-12-06T08:51:36.368Z,1025.03
2016-12-06T08:52:36.349Z,1025.04
2016-12-06T08:53:36.338Z,1025.01
2016-12-06T08:54:36.318Z,1025.03
2016-12-06T08:55:36.301Z,1025.02
2016-12-06T08:56:36.286Z,1025.02
2016-12-06T08:57:36.273Z,1025
2016-12-06T08:58:36.253Z,1025.03
2016-12-06T08:59:36.238Z,1025.08
2016-12-06T09:00:36.221Z,1025.06
2016-12-06T09:01:36.204Z,1025
2016-12-06T09:02:36.189Z,1025.01
2016-12-06T09:03:36.171Z,1024.99
2016-12-06T09:04:36.160Z,1025.03
2016-12-06T09:05:36.139Z,1025.03
2016-12-06T09:06:36.128Z,1025.04
2016-12-06T09:07:36.107Z,1025.08
2016-12-06T09:08:36.103Z,1025.05
2016-12-06T09:09:36.114Z,1025.08
2016-12-06T09:10:36.059Z,1025.08
2016-12-06T09:11:36.041Z,1025.1
2016-12-06T09:12:36.056Z,1025.1
2016-12-06T09:13:36.011Z,1025.06
2016-12-06T09:14:35.994Z,1025.08
2016-12-06T09:15:35.980Z,1025.06
2016-12-06T09:16:35.962Z,1025.09
2016-12-06T09:17:35.949Z,1025.13
2016-12-06T09:18:35.929Z,1025.11
2016-12-06T09:19:35.914Z,1025.16
2016-12-06T09:20:35.898Z,1025.17
2016-12-06T09:21:35.884Z,1025.16
2016-12-06T09:22:35.864Z,1025.19
2016-12-06T09:23:35.849Z,1025.24
2016-12-06T09:24:35.834Z,1025.26
2016-12-06T09:25:35.871Z,1025.22
2016-12-06T09:26:35.800Z,1025.18
2016-12-06T09:27:35.784Z,1025.17
2016-12-06T09:28:35.769Z,1025.19
2016-12-06T09:29:35.752Z,1025.19
2016-12-06T09:30:35.739Z,1025.18
2016-12-06T09:31:35.718Z,1025.23
2016-12-06T09:32:35.704Z,1025.17
2016-12-06T09:33:35.689Z,1025.14
2016-12-06T09:34:35.672Z,1025.14
2016-12-06T09:35:35.657Z,1025.2
2016-12-06T09:36:35.639Z,1025.2
2016-12-06T09:37:35.625Z,1025.23
2016-12-06T09:38:35.607Z,1025.22
2016-12-06T09:39:35.592Z,1025.25
2016-12-06T09:40:35.576Z,1025.23
2016-12-06T09:41:35.560Z,1025.19
2016-12-06T09:42:35.543Z,1025.18
2016-12-06T09:43:35.529Z,1025.17
2016-12-06T09:44:35.512Z,1025.16
2016-12-06T09:45:35.496Z,1025.22
2016-12-06T09:46:35.481Z,1025.22
2016-12-06T09:47:35.466Z,1025.18
2016-12-06T09:48:35.449Z,1025.17
2016-12-06T09:49:35.432Z,1025.15
2016-12-06T09:50:35.417Z,1025.2
2016-12-06T09:51:35.397Z,1025.14
2016-12-06T09:52:35.382Z,1025.15
2016-12-06T09:53:35.367Z,1025.11
2016-12-06T09:54:35.354Z,1025.15
2016-12-06T09:55:35.334Z,1025.14
2016-12-06T09:56:35.322Z,1025.15
2016-12-06T09:57:35.302Z,1025.14
2016-12-06T09:58:35.291Z,1025.13
2016-12-06T09:59:35.270Z,1025.17
2016-12-06T10:00:35.255Z,1025.15
2016-12-06T10:01:35.237Z,1025.14
2016-12-06T10:02:35.226Z,1025.18
2016-12-06T10:03:35.202Z,1025.17
2016-12-06T10:04:35.192Z,1025.14
2016-12-06T10:05:35.174Z,1025.18
2016-12-06T10:06:35.157Z,1025.11
2016-12-06T10:07:35.143Z,1025.14
2016-12-06T10:08:35.127Z,1025.1
2016-12-06T10:09:35.113Z,1025.09
2016-12-06T10:10:35.094Z,1025.06
2016-12-06T10:11:35.081Z,1025.03
2016-12-06T10:12:35.062Z,1025
2016-12-06T10:13:35.045Z,1025.02
2016-12-06T10:14:35.029Z,1025.01
2016-12-06T10:15:35.014Z,1025.04
2016-12-06T10:16:34.997Z,1025.03
2016-12-06T10:17:34.982Z,1025.08
2016-12-06T10:18:34.964Z,1025.06
2016-12-06T10:19:34.955Z,1025.01
2016-12-06T10:20:34.934Z,1025.01
2016-12-06T10:21:34.917Z,1025.01
2016-12-06T10:22:34.902Z,1025.03
2016-12-06T10:23:34.887Z,1025.08
2016-12-06T10:24:34.869Z,1025.06
2016-12-06T10:25:34.854Z,1025.1
2016-12-06T10:26:34.837Z,1025.09
2016-12-06T10:27:34.821Z,1025.05
2016-12-06T10:28:34.808Z,1025.09
2016-12-06T10:29:34.790Z,1025.09
2016-12-06T10:30:34.774Z,1025.12
2016-12-06T10:31:34.761Z,1025.16
2016-12-06T10:32:34.742Z,1025.22
2016-12-06T10:33:34.726Z,1025.19
2016-12-06T10:34:34.713Z,1025.24
2016-12-06T10:35:34.694Z,1025.24
2016-12-06T10:36:34.676Z,1025.21
2016-12-06T10:37:34.664Z,1025.25
2016-12-06T10:38:34.645Z,1025.2
2016-12-06T10:39:34.629Z,1025.19
2016-12-06T10:40:34.615Z,1025.19
2016-12-06T10:41:34.597Z,1025.15
2016-12-06T10:42:34.581Z,1025.14
2016-12-06T10:43:34.566Z,1025.11
2016-12-06T10:44:34.549Z,1025.06
2016-12-06T10:45:34.534Z,1025.11
2016-12-06T10:46:34.517Z,1025.05
2016-12-06T10:47:34.501Z,1025.04
2016-12-06T10:48:34.485Z,1025.08
2016-12-06T10:49:34.469Z,1025.07
2016-12-06T10:50:34.456Z,1025.12
2016-12-06T10:51:34.437Z,1025.1
2016-12-06T10:52:34.422Z,1025.15
2016-12-06T10:53:34.404Z,1025.15
2016-12-06T10:54:34.389Z,1025.2
2016-12-06T10:55:34.374Z,1025.24
2016-12-06T10:56:34.359Z,1025.23
2016-12-06T10:57:34.341Z,1025.21
2016-12-06T10:58:34.326Z,1025.2
2016-12-06T10:59:34.311Z,1025.19
2016-12-06T11:00:34.294Z,1025.21
2016-12-06T11:01:34.278Z,1025.22
2016-12-06T11:02:34.261Z,1025.19
2016-12-06T11:03:34.245Z,1025.18
2016-12-06T11:04:34.229Z,1025.18
2016-12-06T11:05:34.215Z,1025.16
2016-12-06T11:06:34.198Z,1025.25
2016-12-06T11:07:34.189Z,1025.26
2016-12-06T11:08:34.166Z,1025.28
2016-12-06T11:09:34.151Z,1025.26
2016-12-06T11:10:34.134Z,1025.28
2016-12-06T11:11:34.119Z,1025.25
2016-12-06T11:12:34.101Z,1025.26
2016-12-06T11:13:34.091Z,1025.23
2016-12-06T11:14:34.071Z,1025.25
2016-12-06T11:15:34.054Z,1025.27
2016-12-06T11:16:34.039Z,1025.26
2016-12-06T11:17:34.024Z,1025.23
2016-12-06T11:18:34.010Z,1025.24
2016-12-06T11:19:33.991Z,1025.24
2016-12-06T11:20:33.976Z,1025.2
2016-12-06T11:21:33.961Z,1025.25
2016-12-06T11:22:33.944Z,1025.17
2016-12-06T11:23:33.927Z,1025.23
2016-12-06T11:24:33.913Z,1025.23
2016-12-06T11:25:33.898Z,1025.2
2016-12-06T11:26:33.888Z,1025.23
2016-12-06T11:27:33.864Z,1025.27
2016-12-06T11:28:33.848Z,1025.26
2016-12-06T11:29:33.831Z,1025.26
2016-12-06T11:30:33.815Z,1025.28
2016-12-06T11:31:33.802Z,1025.26
2016-12-06T11:32:33.789Z,1025.24
2016-12-06T11:33:33.767Z,1025.3
2016-12-06T11:34:33.752Z,1025.32
2016-12-06T11:35:33.737Z,1025.31
2016-12-06T11:36:33.723Z,1025.29
2016-12-06T11:37:33.709Z,1025.34
2016-12-06T11:38:33.690Z,1025.39
2016-12-06T11:39:33.677Z,1025.38
2016-12-06T11:40:33.656Z,1025.35
2016-12-06T11:41:33.640Z,1025.35
2016-12-06T11:42:33.625Z,1025.37
2016-12-06T11:43:33.610Z,1025.38
2016-12-06T11:44:33.596Z,1025.42
2016-12-06T11:45:33.577Z,1025.4
2016-12-06T11:46:33.561Z,1025.45
2016-12-06T11:47:33.545Z,1025.5
2016-12-06T11:48:33.538Z,1025.45
2016-12-06T11:49:33.512Z,1025.46
2016-12-06T11:50:33.497Z,1025.48
2016-12-06T11:51:33.480Z,1025.43
2016-12-06T11:52:33.465Z,1025.37
2016-12-06T11:53:33.450Z,1025.33
2016-12-06T11:54:33.433Z,1025.3
2016-12-06T11:55:33.415Z,1025.35
2016-12-06T11:56:33.421Z,1025.32
2016-12-06T11:57:33.386Z,1025.31
2016-12-06T11:58:33.369Z,1025.3
2016-12-06T11:59:33.352Z,1025.31
2016-12-06T12:00:33.337Z,1025.27
2016-12-06T12:01:33.320Z,1025.22
2016-12-06T12:02:33.305Z,1025.28
2016-12-06T12:03:33.288Z,1025.27
2016-12-06T12:04:33.271Z,1025.26
2016-12-06T12:05:33.259Z,1025.26
2016-12-06T12:06:33.241Z,1025.28
2016-12-06T12:07:33.224Z,1025.28
2016-12-06T12:08:33.209Z,1025.25
2016-12-06T12:09:33.194Z,1025.24